sensor_id;sensor_type;location;lat;lon;timestamp;temperature;humidity
43647;DHT22;56152;49.996;18.980;2023-08-01T00:01:30;16.90;90.50
43647;DHT22;56152;49.996;18.980;2023-08-01T00:06:32;16.90;90.50
43647;DHT22;56152;49.996;18.980;2023-08-01T00:11:34;16.80;90.40
43647;DHT22;56152;49.996;18.980;2023-08-01T00:16:38;16.70;90.50
43647;DHT22;56152;49.996;18.980;2023-08-01T00:21:39;16.60;90.70
43647;DHT22;56152;49.996;18.980;2023-08-01T00:26:44;16.40;90.70
43647;DHT22;56152;49.996;18.980;2023-08-01T00:31:47;16.30;90.80
43647;DHT22;56152;49.996;18.980;2023-08-01T00:36:49;16.30;90.90
43647;DHT22;56152;49.996;18.980;2023-08-01T00:41:51;16.20;90.90
43647;DHT22;56152;49.996;18.980;2023-08-01T00:46:58;16.10;90.90
43647;DHT22;56152;49.996;18.980;2023-08-01T00:52:02;16.10;90.90
43647;DHT22;56152;49.996;18.980;2023-08-01T00:57:05;16.10;90.90
43647;DHT22;56152;49.996;18.980;2023-08-01T01:02:08;16.10;90.90
43647;DHT22;56152;49.996;18.980;2023-08-01T01:07:10;16.10;91.00
43647;DHT22;56152;49.996;18.980;2023-08-01T01:12:15;16.10;91.30
43647;DHT22;56152;49.996;18.980;2023-08-01T01:17:19;16.10;91.00
43647;DHT22;56152;49.996;18.980;2023-08-01T01:22:22;16.10;91.10
43647;DHT22;56152;49.996;18.980;2023-08-01T01:27:26;16.00;91.20
43647;DHT22;56152;49.996;18.980;2023-08-01T01:32:29;16.00;91.30
43647;DHT22;56152;49.996;18.980;2023-08-01T01:37:33;15.90;91.20
43647;DHT22;56152;49.996;18.980;2023-08-01T01:42:34;15.80;91.40
43647;DHT22;56152;49.996;18.980;2023-08-01T01:47:37;15.70;91.40
43647;DHT22;56152;49.996;18.980;2023-08-01T01:52:40;15.50;91.50
43647;DHT22;56152;49.996;18.980;2023-08-01T01:57:42;15.40;91.50
43647;DHT22;56152;49.996;18.980;2023-08-01T02:02:44;15.30;91.60
43647;DHT22;56152;49.996;18.980;2023-08-01T02:07:48;15.20;91.60
43647;DHT22;56152;49.996;18.980;2023-08-01T02:12:49;15.20;91.70
43647;DHT22;56152;49.996;18.980;2023-08-01T02:17:52;15.10;91.80
43647;DHT22;56152;49.996;18.980;2023-08-01T02:22:55;15.10;91.70
43647;DHT22;56152;49.996;18.980;2023-08-01T02:27:58;15.20;91.70
43647;DHT22;56152;49.996;18.980;2023-08-01T02:33:00;15.20;91.80
43647;DHT22;56152;49.996;18.980;2023-08-01T02:38:04;15.10;91.80
43647;DHT22;56152;49.996;18.980;2023-08-01T02:43:06;15.10;91.80
43647;DHT22;56152;49.996;18.980;2023-08-01T02:48:07;15.10;91.90
43647;DHT22;56152;49.996;18.980;2023-08-01T02:53:11;15.10;91.90
43647;DHT22;56152;49.996;18.980;2023-08-01T02:58:13;15.10;91.90
43647;DHT22;56152;49.996;18.980;2023-08-01T03:03:15;15.20;91.90
43647;DHT22;56152;49.996;18.980;2023-08-01T03:08:18;15.20;91.90
43647;DHT22;56152;49.996;18.980;2023-08-01T03:13:20;15.30;92.00
43647;DHT22;56152;49.996;18.980;2023-08-01T03:18:23;15.30;92.10
43647;DHT22;56152;49.996;18.980;2023-08-01T03:23:26;15.30;92.20
43647;DHT22;56152;49.996;18.980;2023-08-01T03:28:31;15.30;92.30
43647;DHT22;56152;49.996;18.980;2023-08-01T03:33:33;15.30;92.30
43647;DHT22;56152;49.996;18.980;2023-08-01T03:38:37;15.30;92.30
43647;DHT22;56152;49.996;18.980;2023-08-01T03:43:38;15.40;92.30
43647;DHT22;56152;49.996;18.980;2023-08-01T03:48:40;15.40;92.30
43647;DHT22;56152;49.996;18.980;2023-08-01T03:53:45;15.50;92.30
43647;DHT22;56152;49.996;18.980;2023-08-01T03:58:47;15.50;92.40
43647;DHT22;56152;49.996;18.980;2023-08-01T04:03:48;15.50;92.40
43647;DHT22;56152;49.996;18.980;2023-08-01T04:08:54;15.60;92.50
43647;DHT22;56152;49.996;18.980;2023-08-01T04:13:57;15.80;92.40
43647;DHT22;56152;49.996;18.980;2023-08-01T04:18:59;15.90;92.30
43647;DHT22;56152;49.996;18.980;2023-08-01T04:24:02;16.00;92.30
43647;DHT22;56152;49.996;18.980;2023-08-01T04:29:04;16.00;92.30
43647;DHT22;56152;49.996;18.980;2023-08-01T04:34:06;16.10;92.30
43647;DHT22;56152;49.996;18.980;2023-08-01T04:39:10;16.20;92.40
43647;DHT22;56152;49.996;18.980;2023-08-01T04:44:12;16.40;92.30
43647;DHT22;56152;49.996;18.980;2023-08-01T04:49:13;16.70;92.30
43647;DHT22;56152;49.996;18.980;2023-08-01T04:54:17;16.90;92.10
43647;DHT22;56152;49.996;18.980;2023-08-01T04:59:19;17.30;92.10
43647;DHT22;56152;49.996;18.980;2023-08-01T05:04:21;17.80;91.80
43647;DHT22;56152;49.996;18.980;2023-08-01T05:09:25;18.40;91.40
43647;DHT22;56152;49.996;18.980;2023-08-01T05:14:27;18.90;90.50
43647;DHT22;56152;49.996;18.980;2023-08-01T05:19:28;19.00;90.30
43647;DHT22;56152;49.996;18.980;2023-08-01T05:24:32;19.00;90.30
43647;DHT22;56152;49.996;18.980;2023-08-01T05:29:34;19.00;90.50
43647;DHT22;56152;49.996;18.980;2023-08-01T05:34:46;19.00;90.50
43647;DHT22;56152;49.996;18.980;2023-08-01T05:39:49;19.00;90.50
43647;DHT22;56152;49.996;18.980;2023-08-01T05:44:51;19.10;90.60
43647;DHT22;56152;49.996;18.980;2023-08-01T05:49:56;19.10;90.70
43647;DHT22;56152;49.996;18.980;2023-08-01T05:54:59;19.10;90.90
43647;DHT22;56152;49.996;18.980;2023-08-01T06:00:01;19.00;91.10
43647;DHT22;56152;49.996;18.980;2023-08-01T06:05:04;19.00;91.30
43647;DHT22;56152;49.996;18.980;2023-08-01T06:10:08;19.00;91.70
43647;DHT22;56152;49.996;18.980;2023-08-01T06:15:10;19.00;91.60
43647;DHT22;56152;49.996;18.980;2023-08-01T06:20:12;19.00;91.80
43647;DHT22;56152;49.996;18.980;2023-08-01T06:25:16;19.10;91.80
43647;DHT22;56152;49.996;18.980;2023-08-01T06:30:18;19.10;91.80
43647;DHT22;56152;49.996;18.980;2023-08-01T06:35:20;19.30;91.90
43647;DHT22;56152;49.996;18.980;2023-08-01T06:40:27;19.40;92.00
43647;DHT22;56152;49.996;18.980;2023-08-01T06:45:29;19.60;91.60
43647;DHT22;56152;49.996;18.980;2023-08-01T06:50:30;19.80;91.30
43647;DHT22;56152;49.996;18.980;2023-08-01T06:55:34;20.00;91.10
43647;DHT22;56152;49.996;18.980;2023-08-01T07:00:38;20.10;90.70
43647;DHT22;56152;49.996;18.980;2023-08-01T07:05:40;20.50;90.60
43647;DHT22;56152;49.996;18.980;2023-08-01T07:10:43;21.10;89.70
43647;DHT22;56152;49.996;18.980;2023-08-01T07:15:47;21.50;88.00
43647;DHT22;56152;49.996;18.980;2023-08-01T07:20:59;21.90;86.90
43647;DHT22;56152;49.996;18.980;2023-08-01T07:26:02;22.30;85.50
43647;DHT22;56152;49.996;18.980;2023-08-01T07:31:06;22.50;84.70
43647;DHT22;56152;49.996;18.980;2023-08-01T07:36:08;22.70;83.60
43647;DHT22;56152;49.996;18.980;2023-08-01T07:41:11;22.60;83.50
43647;DHT22;56152;49.996;18.980;2023-08-01T07:46:13;22.60;83.70
43647;DHT22;56152;49.996;18.980;2023-08-01T07:51:15;22.70;83.70
43647;DHT22;56152;49.996;18.980;2023-08-01T07:56:18;22.50;83.70
43647;DHT22;56152;49.996;18.980;2023-08-01T08:01:22;22.20;84.70
43647;DHT22;56152;49.996;18.980;2023-08-01T08:06:29;21.90;85.40
43647;DHT22;56152;49.996;18.980;2023-08-01T08:11:33;21.70;85.80
43647;DHT22;56152;49.996;18.980;2023-08-01T08:16:35;21.90;85.80
43647;DHT22;56152;49.996;18.980;2023-08-01T08:21:38;22.10;85.50
43647;DHT22;56152;49.996;18.980;2023-08-01T08:26:42;22.20;84.60
43647;DHT22;56152;49.996;18.980;2023-08-01T08:31:46;22.40;84.10
43647;DHT22;56152;49.996;18.980;2023-08-01T08:36:48;22.40;83.20
43647;DHT22;56152;49.996;18.980;2023-08-01T08:41:52;22.40;82.90
43647;DHT22;56152;49.996;18.980;2023-08-01T08:46:55;22.40;81.90
43647;DHT22;56152;49.996;18.980;2023-08-01T08:52:02;22.40;81.40
43647;DHT22;56152;49.996;18.980;2023-08-01T08:57:07;22.50;80.90
43647;DHT22;56152;49.996;18.980;2023-08-01T09:02:09;22.60;80.80
43647;DHT22;56152;49.996;18.980;2023-08-01T09:07:13;22.70;79.90
43647;DHT22;56152;49.996;18.980;2023-08-01T09:12:21;22.90;78.80
43647;DHT22;56152;49.996;18.980;2023-08-01T09:17:23;23.10;78.50
43647;DHT22;56152;49.996;18.980;2023-08-01T09:22:25;23.10;78.10
43647;DHT22;56152;49.996;18.980;2023-08-01T09:27:33;23.20;77.70
43647;DHT22;56152;49.996;18.980;2023-08-01T09:32:34;23.20;77.60
43647;DHT22;56152;49.996;18.980;2023-08-01T09:37:39;23.20;77.30
43647;DHT22;56152;49.996;18.980;2023-08-01T09:42:49;23.20;77.20
43647;DHT22;56152;49.996;18.980;2023-08-01T09:47:58;23.10;77.10
43647;DHT22;56152;49.996;18.980;2023-08-01T09:53:07;23.00;76.30
43647;DHT22;56152;49.996;18.980;2023-08-01T09:58:13;22.90;75.90
43647;DHT22;56152;49.996;18.980;2023-08-01T10:03:15;22.50;76.00
43647;DHT22;56152;49.996;18.980;2023-08-01T10:08:17;22.20;77.00
43647;DHT22;56152;49.996;18.980;2023-08-01T10:13:23;21.80;77.60
43647;DHT22;56152;49.996;18.980;2023-08-01T10:18:26;21.30;79.10
43647;DHT22;56152;49.996;18.980;2023-08-01T10:23:30;20.90;80.90
43647;DHT22;56152;49.996;18.980;2023-08-01T10:28:34;20.70;82.10
43647;DHT22;56152;49.996;18.980;2023-08-01T10:33:37;20.60;83.20
43647;DHT22;56152;49.996;18.980;2023-08-01T10:38:45;20.50;83.80
43647;DHT22;56152;49.996;18.980;2023-08-01T10:43:50;20.40;85.00
43647;DHT22;56152;49.996;18.980;2023-08-01T10:48:57;20.40;86.10
43647;DHT22;56152;49.996;18.980;2023-08-01T10:53:59;20.10;87.50
43647;DHT22;56152;49.996;18.980;2023-08-01T10:59:05;20.00;88.70
43647;DHT22;56152;49.996;18.980;2023-08-01T11:04:13;19.80;89.70
43647;DHT22;56152;49.996;18.980;2023-08-01T11:09:19;19.70;90.40
43647;DHT22;56152;49.996;18.980;2023-08-01T11:14:28;19.60;90.90
43647;DHT22;56152;49.996;18.980;2023-08-01T11:19:31;19.50;91.10
43647;DHT22;56152;49.996;18.980;2023-08-01T11:24:33;19.40;91.50
43647;DHT22;56152;49.996;18.980;2023-08-01T11:29:38;19.30;91.80
43647;DHT22;56152;49.996;18.980;2023-08-01T11:34:42;19.10;92.00
43647;DHT22;56152;49.996;18.980;2023-08-01T11:39:47;19.00;92.30
43647;DHT22;56152;49.996;18.980;2023-08-01T11:44:51;18.90;92.50
43647;DHT22;56152;49.996;18.980;2023-08-01T11:49:53;18.80;92.70
43647;DHT22;56152;49.996;18.980;2023-08-01T11:54:55;18.60;92.70
43647;DHT22;56152;49.996;18.980;2023-08-01T11:59:58;18.60;93.00
43647;DHT22;56152;49.996;18.980;2023-08-01T12:05:00;18.40;93.10
43647;DHT22;56152;49.996;18.980;2023-08-01T12:10:03;18.50;93.30
43647;DHT22;56152;49.996;18.980;2023-08-01T12:15:07;18.50;93.50
43647;DHT22;56152;49.996;18.980;2023-08-01T12:20:10;18.40;93.50
43647;DHT22;56152;49.996;18.980;2023-08-01T12:25:12;18.40;93.60
43647;DHT22;56152;49.996;18.980;2023-08-01T12:30:16;18.40;93.70
43647;DHT22;56152;49.996;18.980;2023-08-01T12:35:19;18.50;94.10
43647;DHT22;56152;49.996;18.980;2023-08-01T12:40:24;18.50;93.90
43647;DHT22;56152;49.996;18.980;2023-08-01T12:45:27;18.60;94.00
43647;DHT22;56152;49.996;18.980;2023-08-01T12:50:29;18.80;94.10
43647;DHT22;56152;49.996;18.980;2023-08-01T12:55:31;18.80;94.00
43647;DHT22;56152;49.996;18.980;2023-08-01T13:00:34;18.90;94.10
43647;DHT22;56152;49.996;18.980;2023-08-01T13:05:36;18.90;93.90
43647;DHT22;56152;49.996;18.980;2023-08-01T13:10:41;18.80;93.90
43647;DHT22;56152;49.996;18.980;2023-08-01T13:15:48;18.80;94.10
43647;DHT22;56152;49.996;18.980;2023-08-01T13:20:52;18.70;94.10
43647;DHT22;56152;49.996;18.980;2023-08-01T13:25:55;18.50;94.20
43647;DHT22;56152;49.996;18.980;2023-08-01T13:31:00;18.50;94.30
43647;DHT22;56152;49.996;18.980;2023-08-01T13:36:03;18.50;94.40
43647;DHT22;56152;49.996;18.980;2023-08-01T13:41:05;18.40;94.40
43647;DHT22;56152;49.996;18.980;2023-08-01T13:46:15;18.30;94.60
43647;DHT22;56152;49.996;18.980;2023-08-01T13:51:20;18.30;94.70
43647;DHT22;56152;49.996;18.980;2023-08-01T13:56:22;18.20;94.80
43647;DHT22;56152;49.996;18.980;2023-08-01T14:01:28;18.20;94.90
43647;DHT22;56152;49.996;18.980;2023-08-01T14:06:30;18.20;95.00
43647;DHT22;56152;49.996;18.980;2023-08-01T14:11:32;18.20;95.10
43647;DHT22;56152;49.996;18.980;2023-08-01T14:16:37;18.20;95.20
43647;DHT22;56152;49.996;18.980;2023-08-01T14:21:39;18.30;95.40
43647;DHT22;56152;49.996;18.980;2023-08-01T14:26:46;18.30;95.10
43647;DHT22;56152;49.996;18.980;2023-08-01T14:31:51;18.20;95.10
43647;DHT22;56152;49.996;18.980;2023-08-01T14:36:55;18.10;95.20
43647;DHT22;56152;49.996;18.980;2023-08-01T14:42:00;18.10;95.30
43647;DHT22;56152;49.996;18.980;2023-08-01T14:47:04;18.00;95.50
43647;DHT22;56152;49.996;18.980;2023-08-01T14:52:07;17.90;95.50
43647;DHT22;56152;49.996;18.980;2023-08-01T14:57:09;17.90;95.60
43647;DHT22;56152;49.996;18.980;2023-08-01T15:02:16;17.90;95.70
43647;DHT22;56152;49.996;18.980;2023-08-01T15:07:18;17.90;95.80
43647;DHT22;56152;49.996;18.980;2023-08-01T15:12:35;17.90;95.80
43647;DHT22;56152;49.996;18.980;2023-08-01T15:17:55;17.90;95.90
43647;DHT22;56152;49.996;18.980;2023-08-01T15:23:10;17.90;95.80
43647;DHT22;56152;49.996;18.980;2023-08-01T15:28:22;17.90;95.90
43647;DHT22;56152;49.996;18.980;2023-08-01T15:33:26;17.80;95.90
43647;DHT22;56152;49.996;18.980;2023-08-01T15:38:33;17.80;95.80
43647;DHT22;56152;49.996;18.980;2023-08-01T15:43:38;17.70;95.90
43647;DHT22;56152;49.996;18.980;2023-08-01T15:48:43;17.60;96.00
43647;DHT22;56152;49.996;18.980;2023-08-01T15:53:59;17.70;96.10
43647;DHT22;56152;49.996;18.980;2023-08-01T15:59:02;17.60;96.00
43647;DHT22;56152;49.996;18.980;2023-08-01T16:04:07;17.60;96.00
43647;DHT22;56152;49.996;18.980;2023-08-01T16:09:10;17.50;96.00
43647;DHT22;56152;49.996;18.980;2023-08-01T16:14:12;17.50;96.10
43647;DHT22;56152;49.996;18.980;2023-08-01T16:19:16;17.50;96.10
43647;DHT22;56152;49.996;18.980;2023-08-01T16:24:18;17.50;96.20
43647;DHT22;56152;49.996;18.980;2023-08-01T16:29:20;17.50;96.20
43647;DHT22;56152;49.996;18.980;2023-08-01T16:34:26;17.50;96.30
43647;DHT22;56152;49.996;18.980;2023-08-01T16:39:28;17.50;96.30
43647;DHT22;56152;49.996;18.980;2023-08-01T16:44:30;17.50;96.30
43647;DHT22;56152;49.996;18.980;2023-08-01T16:50:01;17.50;96.40
43647;DHT22;56152;49.996;18.980;2023-08-01T16:55:17;17.50;96.40
43647;DHT22;56152;49.996;18.980;2023-08-01T17:00:50;17.50;96.50
43647;DHT22;56152;49.996;18.980;2023-08-01T17:06:10;17.40;96.40
43647;DHT22;56152;49.996;18.980;2023-08-01T17:11:50;17.40;96.80
43647;DHT22;56152;49.996;18.980;2023-08-01T17:16:52;17.30;96.30
43647;DHT22;56152;49.996;18.980;2023-08-01T17:21:56;17.30;96.50
43647;DHT22;56152;49.996;18.980;2023-08-01T17:26:58;17.30;96.60
43647;DHT22;56152;49.996;18.980;2023-08-01T17:32:14;17.30;96.60
43647;DHT22;56152;49.996;18.980;2023-08-01T17:37:36;17.30;96.60
43647;DHT22;56152;49.996;18.980;2023-08-01T17:42:42;17.20;96.60
43647;DHT22;56152;49.996;18.980;2023-08-01T17:47:44;17.30;96.70
43647;DHT22;56152;49.996;18.980;2023-08-01T17:52:48;17.30;96.60
43647;DHT22;56152;49.996;18.980;2023-08-01T17:57:53;17.30;96.60
43647;DHT22;56152;49.996;18.980;2023-08-01T18:02:58;17.20;96.60
43647;DHT22;56152;49.996;18.980;2023-08-01T18:08:16;17.20;96.70
43647;DHT22;56152;49.996;18.980;2023-08-01T18:13:18;17.20;96.70
43647;DHT22;56152;49.996;18.980;2023-08-01T18:18:21;17.10;96.70
43647;DHT22;56152;49.996;18.980;2023-08-01T18:23:27;17.10;96.70
43647;DHT22;56152;49.996;18.980;2023-08-01T18:28:30;17.00;96.70
43647;DHT22;56152;49.996;18.980;2023-08-01T18:33:36;17.00;96.70
43647;DHT22;56152;49.996;18.980;2023-08-01T18:38:42;17.00;96.70
43647;DHT22;56152;49.996;18.980;2023-08-01T18:43:46;16.90;96.70
43647;DHT22;56152;49.996;18.980;2023-08-01T18:48:53;16.90;96.80
43647;DHT22;56152;49.996;18.980;2023-08-01T18:59:46;16.80;96.90
43647;DHT22;56152;49.996;18.980;2023-08-01T19:04:51;16.80;96.80
43647;DHT22;56152;49.996;18.980;2023-08-01T19:09:53;16.80;96.80
43647;DHT22;56152;49.996;18.980;2023-08-01T19:15:04;16.70;96.80
43647;DHT22;56152;49.996;18.980;2023-08-01T19:20:13;16.70;97.00
43647;DHT22;56152;49.996;18.980;2023-08-01T19:25:17;16.70;96.90
43647;DHT22;56152;49.996;18.980;2023-08-01T19:30:22;16.70;96.90
43647;DHT22;56152;49.996;18.980;2023-08-01T19:35:38;16.70;96.90
43647;DHT22;56152;49.996;18.980;2023-08-01T19:40:42;16.60;96.90
43647;DHT22;56152;49.996;18.980;2023-08-01T19:45:52;16.60;96.90
43647;DHT22;56152;49.996;18.980;2023-08-01T19:50:54;16.50;97.20
43647;DHT22;56152;49.996;18.980;2023-08-01T19:55:58;16.50;96.90
43647;DHT22;56152;49.996;18.980;2023-08-01T20:01:02;16.40;97.00
43647;DHT22;56152;49.996;18.980;2023-08-01T20:06:04;16.40;97.10
43647;DHT22;56152;49.996;18.980;2023-08-01T20:11:08;16.50;97.10
43647;DHT22;56152;49.996;18.980;2023-08-01T20:16:13;16.50;97.20
43647;DHT22;56152;49.996;18.980;2023-08-01T20:21:16;16.40;97.20
43647;DHT22;56152;49.996;18.980;2023-08-01T20:26:20;16.40;97.20
43647;DHT22;56152;49.996;18.980;2023-08-01T20:31:25;16.40;97.20
43647;DHT22;56152;49.996;18.980;2023-08-01T20:36:27;16.40;97.20
43647;DHT22;56152;49.996;18.980;2023-08-01T20:41:35;16.40;97.20
43647;DHT22;56152;49.996;18.980;2023-08-01T20:46:38;16.30;97.20
43647;DHT22;56152;49.996;18.980;2023-08-01T20:51:43;16.30;97.20
43647;DHT22;56152;49.996;18.980;2023-08-01T20:56:46;16.30;97.30
43647;DHT22;56152;49.996;18.980;2023-08-01T21:01:50;16.30;97.30
43647;DHT22;56152;49.996;18.980;2023-08-01T21:06:51;16.30;97.30
43647;DHT22;56152;49.996;18.980;2023-08-01T21:11:53;16.30;97.30
43647;DHT22;56152;49.996;18.980;2023-08-01T21:16:57;16.30;97.30
43647;DHT22;56152;49.996;18.980;2023-08-01T21:22:00;16.30;97.40
43647;DHT22;56152;49.996;18.980;2023-08-01T21:27:03;16.30;97.30
43647;DHT22;56152;49.996;18.980;2023-08-01T21:32:07;16.30;97.40
43647;DHT22;56152;49.996;18.980;2023-08-01T21:37:10;16.20;97.40
43647;DHT22;56152;49.996;18.980;2023-08-01T21:42:14;16.20;97.40
43647;DHT22;56152;49.996;18.980;2023-08-01T21:47:19;16.20;97.40
43647;DHT22;56152;49.996;18.980;2023-08-01T21:52:21;16.20;97.50
43647;DHT22;56152;49.996;18.980;2023-08-01T21:57:23;16.20;97.80
43647;DHT22;56152;49.996;18.980;2023-08-01T22:02:27;16.20;97.50
43647;DHT22;56152;49.996;18.980;2023-08-01T22:07:29;16.20;97.50
43647;DHT22;56152;49.996;18.980;2023-08-01T22:12:33;16.20;97.50
43647;DHT22;56152;49.996;18.980;2023-08-01T22:17:37;16.20;97.50
43647;DHT22;56152;49.996;18.980;2023-08-01T22:22:42;16.10;97.50
43647;DHT22;56152;49.996;18.980;2023-08-01T22:27:49;16.10;97.50
43647;DHT22;56152;49.996;18.980;2023-08-01T22:32:54;16.10;97.50
43647;DHT22;56152;49.996;18.980;2023-08-01T22:37:58;16.10;97.50
43647;DHT22;56152;49.996;18.980;2023-08-01T22:43:01;16.10;97.50
43647;DHT22;56152;49.996;18.980;2023-08-01T22:48:07;16.10;97.50
43647;DHT22;56152;49.996;18.980;2023-08-01T22:53:10;16.10;97.40
43647;DHT22;56152;49.996;18.980;2023-08-01T22:58:16;16.10;97.40
43647;DHT22;56152;49.996;18.980;2023-08-01T23:03:22;16.10;97.40
43647;DHT22;56152;49.996;18.980;2023-08-01T23:08:25;16.10;97.40
43647;DHT22;56152;49.996;18.980;2023-08-01T23:13:27;16.10;97.40
43647;DHT22;56152;49.996;18.980;2023-08-01T23:18:32;16.10;97.40
43647;DHT22;56152;49.996;18.980;2023-08-01T23:23:34;16.00;97.40
43647;DHT22;56152;49.996;18.980;2023-08-01T23:28:37;16.10;97.50
43647;DHT22;56152;49.996;18.980;2023-08-01T23:33:41;16.10;97.40
43647;DHT22;56152;49.996;18.980;2023-08-01T23:38:44;16.10;97.40
43647;DHT22;56152;49.996;18.980;2023-08-01T23:43:46;16.10;97.40
43647;DHT22;56152;49.996;18.980;2023-08-01T23:48:56;16.20;97.40
43647;DHT22;56152;49.996;18.980;2023-08-01T23:53:58;16.20;97.40
43647;DHT22;56152;49.996;18.980;2023-08-01T23:59:00;16.20;97.40
